createdAt,value
2023-03-24T00:03:26.163Z,24.95
2023-03-24T00:08:48.850Z,23.77
2023-03-24T00:14:18.831Z,24.93
2023-03-24T00:19:45.058Z,23.27
2023-03-24T00:25:13.700Z,19.95
2023-03-24T00:30:51.767Z,20.23
2023-03-24T00:36:22.202Z,24.35
2023-03-24T00:41:50.528Z,21.27
2023-03-24T00:47:26.053Z,18.57
2023-03-24T00:52:53.587Z,17.52
2023-03-24T00:58:22.792Z,20.30
2023-03-24T01:03:50.754Z,19.73
2023-03-24T01:09:21.625Z,22.15
2023-03-24T01:14:43.635Z,23.92
2023-03-24T01:20:13.537Z,24.83
2023-03-24T01:25:37.415Z,22.45
2023-03-24T01:36:31.022Z,22.02
2023-03-24T01:41:59.371Z,23.27
2023-03-24T01:47:27.302Z,22.80
2023-03-24T01:52:54.899Z,22.17
2023-03-24T01:58:26.474Z,20.77
2023-03-24T02:04:09.480Z,20.35
2023-03-24T02:09:39.505Z,22.40
2023-03-24T02:15:02.503Z,21.95
2023-03-24T02:20:42.382Z,19.83
2023-03-24T02:26:34.305Z,21.98
2023-03-24T02:32:15.647Z,21.52
2023-03-24T02:38:00.924Z,20.52
2023-03-24T02:43:34.083Z,23.38
2023-03-24T02:49:01.184Z,22.83
2023-03-24T02:54:30.901Z,21.83
2023-03-24T02:59:58.043Z,20.95
2023-03-24T03:05:51.387Z,21.20
2023-03-24T03:11:15.187Z,16.38
2023-03-24T03:16:47.196Z,16.10
2023-03-24T03:22:17.243Z,16.48
2023-03-24T03:27:46.921Z,16.63
2023-03-24T03:33:24.752Z,19.80
2023-03-24T03:38:55.977Z,20.67
2023-03-24T03:44:24.737Z,22.80
2023-03-24T03:49:51.015Z,20.38
2023-03-24T03:55:19.783Z,23.50
2023-03-24T04:00:48.246Z,23.13
2023-03-24T04:06:53.875Z,24.33
2023-03-24T04:12:28.524Z,24.25
2023-03-24T04:18:34.240Z,23.45
2023-03-24T04:24:10.367Z,23.48
2023-03-24T04:29:37.171Z,23.88
2023-03-24T04:35:08.739Z,22.23
2023-03-24T04:40:58.861Z,22.02
2023-03-24T04:46:23.130Z,21.52
2023-03-24T04:51:54.865Z,19.98
2023-03-24T04:57:27.824Z,22.27
2023-03-24T05:03:06.313Z,19.98
2023-03-24T05:08:33.247Z,20.83
2023-03-24T05:13:58.390Z,25.92
2023-03-24T05:19:27.392Z,25.13
2023-03-24T05:24:50.521Z,25.20
2023-03-24T05:30:15.603Z,23.60
2023-03-24T05:35:39.475Z,22.77
2023-03-24T05:41:02.931Z,23.50
2023-03-24T05:46:33.860Z,24.88
2023-03-24T05:52:00.317Z,24.88
2023-03-24T05:57:24.094Z,25.67
2023-03-24T06:03:08.330Z,24.00
2023-03-24T06:08:38.344Z,25.13
2023-03-24T06:14:00.878Z,26.05
2023-03-24T06:19:33.918Z,26.63
2023-03-24T06:25:20.327Z,23.45
2023-03-24T06:30:56.655Z,20.92
2023-03-24T06:36:34.699Z,19.95
2023-03-24T06:42:04.437Z,20.38
2023-03-24T06:47:30.363Z,18.55
2023-03-24T06:53:00.613Z,18.00
2023-03-24T06:58:28.272Z,12.77
2023-03-24T07:03:59.076Z,11.65
2023-03-24T07:09:29.577Z,13.05
2023-03-24T07:14:57.443Z,14.40
2023-03-24T07:20:26.335Z,20.95
2023-03-24T07:26:13.845Z,21.98
2023-03-24T07:31:45.760Z,20.88
2023-03-24T07:42:44.045Z,19.70
2023-03-24T07:48:47.780Z,7.50
2023-03-24T07:54:17.855Z,6.68
2023-03-24T07:59:45.407Z,7.00
2023-03-24T08:05:19.562Z,6.45
2023-03-24T08:10:51.602Z,5.53
2023-03-24T08:16:21.430Z,5.90
2023-03-24T08:21:50.336Z,5.55
2023-03-24T08:27:19.227Z,6.03
2023-03-24T08:32:50.661Z,6.03
2023-03-24T08:38:23.354Z,5.05
2023-03-24T08:43:46.681Z,5.35
2023-03-24T08:49:15.492Z,4.55
2023-03-24T08:54:38.647Z,5.18
2023-03-24T09:00:13.648Z,4.97
2023-03-24T09:05:44.398Z,4.53
2023-03-24T09:11:15.577Z,5.38
2023-03-24T09:16:37.926Z,5.50
2023-03-24T09:22:07.490Z,5.85
2023-03-24T09:27:33.081Z,4.90
2023-03-24T09:33:00.260Z,6.10
2023-03-24T09:38:26.798Z,5.53
2023-03-24T09:43:50.886Z,4.75
2023-03-24T09:49:24.044Z,5.95
2023-03-24T09:54:56.107Z,7.35
2023-03-24T10:00:22.871Z,6.25
2023-03-24T10:05:55.460Z,6.05
2023-03-24T10:11:29.526Z,5.93
2023-03-24T10:16:53.799Z,5.53
2023-03-24T10:22:21.695Z,5.50
2023-03-24T10:27:52.913Z,4.90
2023-03-24T10:33:17.704Z,4.78
2023-03-24T10:38:46.500Z,4.93
2023-03-24T10:44:16.982Z,4.30
2023-03-24T10:49:53.777Z,4.35
2023-03-24T10:55:24.484Z,4.57
2023-03-24T11:00:49.584Z,4.50
2023-03-24T11:06:19.368Z,5.15
2023-03-24T11:11:48.173Z,4.30
2023-03-24T11:17:16.388Z,4.07
2023-03-24T11:22:40.468Z,4.30
2023-03-24T11:28:10.272Z,4.60
2023-03-24T11:33:45.664Z,3.70
2023-03-24T11:39:15.951Z,4.38
2023-03-24T11:44:48.205Z,4.22
2023-03-24T11:50:18.768Z,3.63
2023-03-24T11:55:48.458Z,4.07
2023-03-24T12:01:13.829Z,4.82
2023-03-24T12:06:51.062Z,3.80
2023-03-24T12:12:22.515Z,3.67
2023-03-24T12:17:51.492Z,3.25
2023-03-24T12:23:28.249Z,3.30
2023-03-24T12:28:56.109Z,3.40
2023-03-24T12:34:34.824Z,4.05
2023-03-24T12:40:11.562Z,3.60
2023-03-24T12:45:41.595Z,3.80
2023-03-24T12:51:15.553Z,3.75
2023-03-24T12:56:47.208Z,4.63
2023-03-24T13:02:20.910Z,4.22
2023-03-24T13:07:47.535Z,4.33
2023-03-24T13:13:15.171Z,3.92
2023-03-24T13:18:39.119Z,4.60
2023-03-24T13:24:09.156Z,4.78
2023-03-24T13:29:49.712Z,3.78
2023-03-24T13:35:22.729Z,3.92
2023-03-24T13:40:52.656Z,4.43
2023-03-24T13:46:19.930Z,4.47
2023-03-24T13:51:48.227Z,5.22
2023-03-24T13:57:20.499Z,4.97
2023-03-24T14:02:47.085Z,5.05
2023-03-24T14:08:18.083Z,5.57
2023-03-24T14:13:47.534Z,6.05
2023-03-24T14:19:22.087Z,5.38
2023-03-24T14:24:58.202Z,4.68
2023-03-24T14:30:28.350Z,4.43
2023-03-24T14:36:04.942Z,4.85
2023-03-24T14:41:34.345Z,4.32
2023-03-24T14:46:59.490Z,4.75
2023-03-24T14:52:33.118Z,5.13
2023-03-24T14:57:56.991Z,5.63
2023-03-24T15:03:28.988Z,5.72
2023-03-24T15:09:00.140Z,4.90
2023-03-24T15:14:26.232Z,5.13
2023-03-24T15:19:56.249Z,5.20
2023-03-24T15:25:29.542Z,4.03
2023-03-24T15:30:59.801Z,4.60
2023-03-24T15:36:24.005Z,5.30
2023-03-24T15:41:53.337Z,5.70
2023-03-24T15:47:19.293Z,6.78
2023-03-24T15:52:59.413Z,5.03
2023-03-24T15:58:32.190Z,5.20
2023-03-24T16:04:01.784Z,6.88
2023-03-24T16:15:00.152Z,7.93
2023-03-24T16:20:27.344Z,7.60
2023-03-24T16:25:55.961Z,9.13
2023-03-24T16:31:24.765Z,9.68
2023-03-24T16:36:54.354Z,9.93
2023-03-24T16:42:22.928Z,10.20
2023-03-24T16:47:52.564Z,10.98
2023-03-24T16:53:17.512Z,11.38
2023-03-24T16:58:47.998Z,12.10
2023-03-24T17:04:13.946Z,11.93
2023-03-24T17:09:42.850Z,13.15
2023-03-24T17:15:06.248Z,13.27
2023-03-24T17:20:39.661Z,11.85
2023-03-24T17:26:08.314Z,11.85
2023-03-24T17:31:35.635Z,13.65
2023-03-24T17:37:01.956Z,13.60
2023-03-24T17:42:27.224Z,12.57
2023-03-24T17:47:50.565Z,13.55
2023-03-24T17:53:17.278Z,10.55
2023-03-24T17:58:47.574Z,9.50
2023-03-24T18:04:15.925Z,8.63
2023-03-24T18:09:46.408Z,10.45
2023-03-24T18:15:15.581Z,10.15
2023-03-24T18:20:40.354Z,11.68
2023-03-24T18:26:10.568Z,11.70
2023-03-24T18:31:34.957Z,11.90
2023-03-24T18:42:33.534Z,9.52
2023-03-24T18:48:03.531Z,9.23
2023-03-24T18:53:34.466Z,8.40
2023-03-24T18:58:57.529Z,8.52
2023-03-24T19:04:21.902Z,9.38
2023-03-24T19:09:44.992Z,9.65
2023-03-24T19:15:08.117Z,9.63
2023-03-24T19:20:33.254Z,9.18
2023-03-24T19:25:57.221Z,8.82
2023-03-24T19:31:20.827Z,7.60
2023-03-24T19:36:47.026Z,8.48
2023-03-24T19:42:12.634Z,8.40
2023-03-24T19:47:36.813Z,8.52
2023-03-24T19:53:01.985Z,8.57
2023-03-24T19:58:28.708Z,9.02
2023-03-24T20:03:52.123Z,9.10
2023-03-24T20:09:16.757Z,10.38
2023-03-24T20:14:39.898Z,10.93
2023-03-24T20:20:02.794Z,10.65
2023-03-24T20:25:27.374Z,10.70
2023-03-24T20:30:52.254Z,9.05
2023-03-24T20:36:15.595Z,9.75
2023-03-24T20:41:39.848Z,10.73
2023-03-24T20:47:03.476Z,11.23
2023-03-24T20:52:27.238Z,10.40
2023-03-24T20:57:51.659Z,11.07
2023-03-24T21:03:14.788Z,9.63
2023-03-24T21:08:39.056Z,9.75
2023-03-24T21:14:03.630Z,10.80
2023-03-24T21:19:28.637Z,10.30
2023-03-24T21:24:59.360Z,9.48
2023-03-24T21:30:25.036Z,9.50
2023-03-24T21:35:52.485Z,10.55
2023-03-24T21:41:15.576Z,9.77
2023-03-24T21:46:43.190Z,9.38
2023-03-24T21:52:06.882Z,9.68
2023-03-24T21:57:36.135Z,10.27
2023-03-24T22:03:02.379Z,9.38
2023-03-24T22:08:31.114Z,9.48
2023-03-24T22:13:59.805Z,9.73
2023-03-24T22:19:29.386Z,10.23
2023-03-24T22:24:58.075Z,10.75
2023-03-24T22:30:27.110Z,11.02
2023-03-24T22:35:57.275Z,11.52
2023-03-24T22:41:25.735Z,10.10
2023-03-24T22:46:53.668Z,11.40
2023-03-24T22:52:23.178Z,11.27
2023-03-24T22:57:51.985Z,10.38
2023-03-24T23:03:21.004Z,9.57
2023-03-24T23:08:53.679Z,10.00
2023-03-24T23:14:18.393Z,10.20
2023-03-24T23:19:43.252Z,10.00
2023-03-24T23:25:07.691Z,10.07
2023-03-24T23:30:30.052Z,9.73
2023-03-24T23:35:56.628Z,10.93
2023-03-24T23:41:20.887Z,10.55
2023-03-24T23:46:43.598Z,9.23
2023-03-24T23:52:06.791Z,10.27
2023-03-24T23:57:30.907Z,10.00
